Time;durP1;ratioP1;P1;durP2;ratioP2;P2;SDS_P1;SDS_P2;PMS_P1;PMS_P2;Temp;Humidity;BMP_temperature;BMP_pressure;BME280_temperature;BME280_humidity;BME280_pressure;Samples;Min_cycle;Max_cycle;Signal;HPM_P1;HPM_P2
2022/01/26 00:51:07;;;;;;;13.28;7.15;;;;;;;4.54;100.00;101208.29;739870;1155;101518;-76
2022/01/26 01:06:20;;;;;;;17.13;8.80;;;;;;;4.36;100.00;101204.80;740134;1153;115419;-86
2022/01/26 01:36:33;;;;;;;34.30;16.95;;;;;;;4.30;100.00;101210.27;742121;1153;115327;-84
2022/01/26 01:51:39;;;;;;;22.87;11.10;;;;;;;4.25;100.00;101201.85;742308;1154;114871;-84
2022/01/26 02:06:43;;;;;;;18.85;8.73;;;;;;;4.31;100.00;101198.98;742646;1155;115476;-85
2022/01/26 03:53:25;;;;;;;77.50;22.33;;;;;;;4.11;100.00;101151.41;741885;1153;114158;-84
2022/01/26 04:08:30;;;;;;;39.78;13.98;;;;;;;4.07;100.00;101129.09;741919;1153;114375;-84
2022/01/26 04:23:42;;;;;;;106.40;26.53;;;;;;;4.13;100.00;101127.95;741997;1155;115394;-84
2022/01/26 04:38:49;;;;;;;116.68;25.73;;;;;;;4.08;100.00;101120.39;742102;1155;114999;-86
2022/01/26 04:53:51;;;;;;;61.08;18.28;;;;;;;4.03;100.00;101114.58;742134;1153;114538;-84
2022/01/26 05:08:54;;;;;;;47.27;17.30;;;;;;;3.97;100.00;101110.53;742093;1155;114243;-75
2022/01/26 05:23:56;;;;;;;52.30;16.40;;;;;;;3.99;100.00;101094.87;740095;1154;115087;-74
2022/01/26 05:38:58;;;;;;;88.53;26.48;;;;;;;3.90;100.00;101077.13;739921;1153;114929;-74
2022/01/26 05:54:05;;;;;;;64.80;23.40;;;;;;;3.83;100.00;101077.41;739792;1153;114202;-76
2022/01/26 06:09:07;;;;;;;87.05;43.40;;;;;;;3.87;100.00;101072.06;740786;1155;115206;-80
2022/01/26 06:24:09;;;;;;;102.15;47.98;;;;;;;3.74;100.00;101067.47;739780;1155;115387;-75
2022/01/26 06:39:13;;;;;;;57.27;27.73;;;;;;;3.72;100.00;101074.50;739667;1155;115222;-75
2022/01/26 06:54:15;;;;;;;39.80;17.70;;;;;;;3.74;100.00;101072.66;739706;1153;114287;-82
2022/01/26 07:09:17;;;;;;;48.80;20.03;;;;;;;3.80;100.00;101062.00;741765;1153;114191;-81
2022/01/26 07:24:20;;;;;;;45.18;18.33;;;;;;;3.89;100.00;101049.48;741122;1154;115190;-75
2022/01/26 07:39:42;;;;;;;86.70;35.60;;;;;;;3.73;100.00;101045.01;740059;1155;115640;-75
2022/01/26 07:54:46;;;;;;;38.28;23.45;;;;;;;3.91;100.00;101038.11;740233;1153;114742;-74
2022/01/26 08:09:48;;;;;;;31.58;18.35;;;;;;;3.91;100.00;101038.11;740114;1155;115113;-75
2022/01/26 08:24:50;;;;;;;32.20;14.38;;;;;;;4.05;100.00;101052.17;739779;1153;115184;-73
2022/01/26 08:39:53;;;;;;;64.60;24.35;;;;;;;4.04;100.00;101038.37;740141;1153;114990;-73
2022/01/26 08:54:55;;;;;;;38.70;19.37;;;;;;;3.99;100.00;101019.57;740330;1153;114913;-74
2022/01/26 09:10:00;;;;;;;31.18;16.85;;;;;;;3.92;100.00;101000.00;739827;1153;115046;-79
2022/01/26 09:25:03;;;;;;;46.55;18.95;;;;;;;3.84;100.00;100997.80;740558;1155;115270;-75
2022/01/26 09:40:06;;;;;;;55.40;24.03;;;;;;;3.93;100.00;100999.09;740321;1155;114326;-74
2022/01/26 09:55:09;;;;;;;47.25;23.70;;;;;;;4.00;100.00;100972.76;740164;1153;114437;-74
2022/01/26 10:25:19;;;;;;;31.83;15.53;;;;;;;4.11;100.00;100935.03;739893;1153;114814;-77
2022/01/26 10:40:40;;;;;;;41.55;20.90;;;;;;;4.24;100.00;100917.90;739799;1153;115493;-76
2022/01/26 10:55:43;;;;;;;68.63;31.80;;;;;;;4.49;100.00;100912.27;740023;1154;114417;-75
2022/01/26 11:10:47;;;;;;;67.60;26.43;;;;;;;4.64;100.00;100899.38;739773;1155;115710;-75
2022/01/26 11:25:50;;;;;;;46.47;21.83;;;;;;;4.96;100.00;100870.80;740414;1153;114466;-76
2022/01/26 11:56:19;;;;;;;154.53;42.67;;;;;;;5.48;100.00;100849.64;740297;1155;114315;-77
2022/01/26 12:11:23;;;;;;;90.07;31.77;;;;;;;5.69;100.00;100822.45;740316;1153;114540;-78
2022/01/26 12:42:12;;;;;;;40.55;17.80;;;;;;;6.13;100.00;100809.39;740642;1155;115610;-72
2022/01/26 12:57:15;;;;;;;40.90;20.18;;;;;;;6.30;100.00;100792.73;745572;1153;114929;-74
2022/01/26 13:12:29;;;;;;;48.40;29.65;;;;;;;6.40;100.00;100787.80;741292;1155;115198;-72
2022/01/26 14:12:56;;;;;;;138.10;59.33;;;;;;;6.38;100.00;100741.91;740812;1153;115495;-73
2022/01/26 14:28:06;;;;;;;49.30;22.77;;;;;;;6.35;100.00;100723.84;741159;1153;115215;-74
2022/01/26 19:04:07;;;;;;;46.20;20.40;;;;;;;5.06;100.00;100564.27;741479;1153;115334;-76
2022/01/26 20:05:14;;;;;;;57.70;22.55;;;;;;;4.93;100.00;100551.16;741149;1155;115147;-76
2022/01/26 20:20:17;;;;;;;90.35;30.23;;;;;;;4.88;100.00;100533.23;741538;1154;114363;-75
2022/01/26 20:35:20;;;;;;;48.53;19.63;;;;;;;4.95;100.00;100537.14;741160;1153;115095;-75
2022/01/26 20:50:24;;;;;;;25.87;11.40;;;;;;;4.87;100.00;100522.92;740469;1155;115117;-76
2022/01/26 21:05:28;;;;;;;49.78;17.03;;;;;;;4.94;100.00;100516.45;739951;1153;115428;-74
2022/01/26 21:20:31;;;;;;;27.40;11.08;;;;;;;4.86;100.00;100527.30;740385;1155;115627;-76
2022/01/26 21:35:33;;;;;;;21.55;10.70;;;;;;;4.82;100.00;100524.05;740242;1153;114967;-75
2022/01/26 21:50:36;;;;;;;14.80;8.48;;;;;;;4.79;100.00;100511.23;740219;1155;115161;-75
2022/01/26 22:05:39;;;;;;;15.80;8.75;;;;;;;4.80;100.00;100512.06;740132;1153;114199;-75
2022/01/26 22:20:41;;;;;;;14.73;8.55;;;;;;;4.81;100.00;100491.17;740796;1155;115137;-74
2022/01/26 22:35:43;;;;;;;12.83;7.27;;;;;;;4.72;100.00;100496.92;740414;1155;114704;-74
2022/01/26 22:50:54;;;;;;;9.95;6.70;;;;;;;4.57;100.00;100480.50;740323;1155;114942;-75
2022/01/26 23:06:12;;;;;;;10.23;5.95;;;;;;;4.64;100.00;100470.57;740377;1153;114783;-75
2022/01/26 23:21:14;;;;;;;;;;;;;;;4.50;100.00;100461.84;739952;1155;114922;-75
2022/01/26 23:36:48;;;;;;;10.30;6.23;;;;;;;4.36;100.00;100458.41;739888;1154;101404;-75
